createdAt,value
2022-09-03T00:02:28.113Z,90.33
2022-09-03T00:08:06.369Z,91.45
2022-09-03T00:13:10.193Z,91.72
2022-09-03T00:18:22.359Z,92.36
2022-09-03T00:23:28.197Z,92.94
2022-09-03T00:28:54.636Z,92.91
2022-09-03T00:34:05.830Z,93.26
2022-09-03T00:39:15.931Z,93.41
2022-09-03T00:44:34.875Z,93.34
2022-09-03T00:49:55.696Z,93.24
2022-09-03T00:55:36.076Z,93.15
2022-09-03T01:00:43.173Z,92.94
2022-09-03T01:06:34.817Z,92.66
2022-09-03T01:11:45.092Z,92.40
2022-09-03T01:17:23.320Z,92.13
2022-09-03T01:22:39.227Z,91.86
2022-09-03T01:28:09.878Z,91.64
2022-09-03T01:33:49.952Z,91.35
2022-09-03T01:39:07.494Z,91.13
2022-09-03T01:44:32.411Z,91.03
2022-09-03T01:49:49.852Z,90.85
2022-09-03T01:55:21.064Z,90.95
2022-09-03T02:00:24.839Z,90.85
2022-09-03T02:05:28.867Z,90.98
2022-09-03T02:10:44.577Z,91.06
2022-09-03T02:15:50.167Z,90.70
2022-09-03T02:20:54.064Z,90.79
2022-09-03T02:25:59.294Z,91.45
2022-09-03T02:31:01.533Z,91.84
2022-09-03T02:36:08.002Z,91.39
2022-09-03T02:41:14.668Z,91.12
2022-09-03T02:46:27.242Z,91.13
2022-09-03T02:51:38.704Z,91.83
2022-09-03T02:56:40.884Z,91.85
2022-09-03T03:01:43.407Z,91.79
2022-09-03T03:06:50.372Z,92.00
2022-09-03T03:11:54.501Z,92.10
2022-09-03T03:16:56.334Z,92.02
2022-09-03T03:21:58.666Z,91.88
2022-09-03T03:27:00.541Z,91.80
2022-09-03T03:32:02.826Z,91.99
2022-09-03T03:37:05.624Z,92.15
2022-09-03T03:42:07.604Z,92.15
2022-09-03T03:47:09.699Z,92.33
2022-09-03T03:52:11.666Z,92.17
2022-09-03T03:57:13.951Z,92.08
2022-09-03T04:02:17.209Z,92.38
2022-09-03T04:07:19.138Z,92.85
2022-09-03T04:12:21.118Z,93.11
2022-09-03T04:17:25.244Z,93.14
2022-09-03T04:22:29.219Z,93.57
2022-09-03T04:27:31.048Z,93.16
2022-09-03T04:32:52.597Z,90.26
2022-09-03T04:37:54.975Z,82.79
2022-09-03T04:42:59.039Z,73.41
2022-09-03T04:48:04.827Z,65.43
2022-09-03T04:53:08.100Z,57.92
2022-09-03T04:58:10.479Z,52.01
2022-09-03T05:03:12.658Z,48.81
2022-09-03T05:08:14.530Z,46.42
2022-09-03T05:13:17.636Z,45.13
2022-09-03T05:18:19.603Z,43.25
2022-09-03T05:23:22.105Z,41.65
2022-09-03T05:28:27.625Z,39.67
2022-09-03T05:33:38.157Z,36.54
2022-09-03T05:38:40.134Z,36.12
2022-09-03T05:43:42.516Z,35.78
2022-09-03T05:48:45.214Z,34.92
2022-09-03T05:53:48.729Z,34.82
2022-09-03T05:58:52.961Z,34.22
2022-09-03T06:03:57.801Z,32.99
2022-09-03T06:09:02.878Z,32.25
2022-09-03T06:14:07.806Z,30.95
2022-09-03T06:19:10.780Z,29.20
2022-09-03T06:24:16.018Z,29.61
2022-09-03T06:29:19.887Z,29.44
2022-09-03T06:34:22.999Z,28.98
2022-09-03T06:39:26.730Z,28.72
2022-09-03T06:44:28.999Z,27.72
2022-09-03T06:49:31.194Z,27.22
2022-09-03T06:54:33.060Z,26.68
2022-09-03T06:59:34.943Z,27.70
2022-09-03T07:04:36.917Z,25.46
2022-09-03T07:09:40.036Z,25.41
2022-09-03T07:14:42.034Z,25.86
2022-09-03T07:19:45.005Z,25.98
2022-09-03T07:24:47.602Z,27.91
2022-09-03T07:29:49.785Z,26.60
2022-09-03T07:34:52.583Z,24.19
2022-09-03T07:39:54.799Z,23.68
2022-09-03T07:44:57.882Z,24.30
2022-09-03T07:50:00.472Z,23.23
2022-09-03T07:55:05.449Z,21.64
2022-09-03T08:00:12.673Z,21.30
2022-09-03T08:05:15.312Z,21.34
2022-09-03T08:10:17.811Z,20.40
2022-09-03T08:15:20.404Z,21.71
2022-09-03T08:20:22.936Z,22.39
2022-09-03T08:25:25.174Z,21.17
2022-09-03T08:30:27.565Z,20.72
2022-09-03T08:35:30.057Z,20.98
2022-09-03T08:40:36.953Z,20.92
2022-09-03T08:45:39.238Z,22.35
2022-09-03T08:50:55.654Z,21.97
2022-09-03T08:56:08.398Z,20.68
2022-09-03T09:01:26.360Z,20.32
2022-09-03T09:06:59.960Z,19.12
2022-09-03T09:12:23.550Z,17.91
2022-09-03T09:17:32.399Z,17.85
2022-09-03T09:22:47.408Z,18.62
2022-09-03T09:28:01.975Z,17.56
2022-09-03T09:33:04.140Z,17.74
2022-09-03T09:38:06.108Z,17.89
2022-09-03T09:43:21.709Z,20.37
2022-09-03T09:48:33.722Z,20.93
2022-09-03T09:53:36.128Z,22.20
2022-09-03T09:58:38.601Z,25.22
2022-09-03T10:03:50.616Z,27.14
2022-09-03T10:09:16.664Z,28.21
2022-09-03T10:14:32.260Z,29.15
2022-09-03T10:20:21.239Z,31.98
2022-09-03T10:25:26.674Z,31.11
2022-09-03T10:30:46.031Z,31.24
2022-09-03T10:35:57.804Z,30.39
2022-09-03T10:41:02.659Z,31.75
2022-09-03T10:46:18.385Z,32.13
2022-09-03T10:51:31.192Z,32.22
2022-09-03T10:57:01.219Z,32.72
2022-09-03T11:02:22.734Z,33.02
2022-09-03T11:07:37.735Z,32.08
2022-09-03T11:12:46.798Z,32.25
2022-09-03T11:17:58.798Z,32.50
2022-09-03T11:23:04.504Z,32.50
2022-09-03T11:28:18.729Z,32.62
2022-09-03T11:33:24.860Z,33.36
2022-09-03T11:38:30.787Z,32.37
2022-09-03T11:43:34.089Z,32.23
2022-09-03T11:48:38.367Z,33.01
2022-09-03T11:53:40.712Z,33.48
2022-09-03T11:58:43.207Z,32.84
2022-09-03T12:03:53.215Z,33.07
2022-09-03T12:09:25.974Z,33.82
2022-09-03T12:14:46.897Z,33.41
2022-09-03T12:19:54.926Z,33.72
2022-09-03T12:25:12.927Z,32.45
2022-09-03T12:30:18.582Z,34.17
2022-09-03T12:46:15.140Z,36.25
2022-09-03T12:56:42.612Z,36.74
2022-09-03T13:01:53.246Z,36.86
2022-09-03T13:07:03.746Z,37.00
2022-09-03T13:12:06.542Z,37.14
2022-09-03T13:17:14.967Z,37.17
2022-09-03T13:22:44.529Z,36.50
2022-09-03T13:28:05.007Z,37.12
2022-09-03T13:33:26.529Z,37.35
2022-09-03T13:38:50.131Z,36.72
2022-09-03T13:44:08.159Z,37.39
2022-09-03T13:49:51.126Z,37.14
2022-09-03T13:55:00.092Z,37.76
2022-09-03T14:00:12.085Z,38.11
2022-09-03T14:05:47.320Z,38.10
2022-09-03T14:10:57.419Z,37.87
2022-09-03T14:16:11.736Z,38.26
2022-09-03T14:21:21.117Z,38.66
2022-09-03T14:26:39.562Z,39.04
2022-09-03T14:31:54.032Z,38.60
2022-09-03T14:37:25.647Z,39.65
2022-09-03T14:42:57.530Z,39.62
2022-09-03T14:48:02.066Z,39.94
2022-09-03T14:53:06.615Z,40.39
2022-09-03T14:58:24.150Z,40.55
2022-09-03T15:03:40.670Z,41.42
2022-09-03T15:09:02.834Z,40.89
2022-09-03T15:14:20.370Z,42.23
2022-09-03T15:19:54.299Z,42.15
2022-09-03T15:25:16.247Z,42.01
2022-09-03T15:30:20.380Z,41.54
2022-09-03T15:35:40.000Z,41.60
2022-09-03T15:40:45.541Z,42.01
2022-09-03T15:45:47.805Z,42.75
2022-09-03T15:51:03.008Z,43.14
2022-09-03T15:56:18.519Z,43.79
2022-09-03T16:01:32.157Z,44.07
2022-09-03T16:07:05.365Z,43.45
2022-09-03T16:12:44.934Z,43.79
2022-09-03T16:18:01.306Z,44.05
2022-09-03T16:23:19.516Z,44.79
2022-09-03T16:28:28.760Z,44.74
2022-09-03T16:34:07.805Z,45.66
2022-09-03T16:39:10.548Z,44.90
2022-09-03T16:44:45.664Z,45.50
2022-09-03T16:49:50.622Z,47.34
2022-09-03T16:55:25.761Z,47.62
2022-09-03T17:00:54.835Z,47.57
2022-09-03T17:06:32.503Z,48.56
2022-09-03T17:11:40.723Z,49.34
2022-09-03T17:17:01.656Z,50.53
2022-09-03T17:22:41.303Z,51.01
2022-09-03T17:28:07.470Z,51.03
2022-09-03T17:33:44.655Z,52.06
2022-09-03T17:39:05.173Z,52.70
2022-09-03T17:44:28.857Z,53.55
2022-09-03T17:50:24.075Z,53.76
2022-09-03T17:55:30.789Z,54.51
2022-09-03T18:01:03.067Z,56.59
2022-09-03T18:06:41.915Z,56.34
2022-09-03T18:11:48.944Z,55.10
2022-09-03T18:17:29.701Z,59.42
2022-09-03T18:23:01.690Z,59.87
2022-09-03T18:28:28.863Z,61.97
2022-09-03T18:33:50.089Z,60.86
2022-09-03T18:39:11.740Z,61.53
2022-09-03T18:45:06.603Z,62.37
2022-09-03T18:51:03.042Z,63.10
2022-09-03T18:56:42.358Z,61.86
2022-09-03T19:02:03.986Z,62.71
2022-09-03T19:07:40.172Z,64.63
2022-09-03T19:13:15.138Z,64.06
2022-09-03T19:18:36.157Z,63.80
2022-09-03T19:23:58.409Z,64.55
2022-09-03T19:29:27.010Z,64.09
2022-09-03T19:35:20.201Z,65.20
2022-09-03T19:41:03.327Z,65.08
2022-09-03T19:46:33.706Z,65.71
2022-09-03T19:52:07.705Z,66.41
2022-09-03T19:57:32.378Z,66.64
2022-09-03T20:02:53.973Z,67.42
2022-09-03T20:08:17.179Z,66.40
2022-09-03T20:13:20.570Z,67.55
2022-09-03T20:18:44.562Z,67.84
2022-09-03T20:24:00.340Z,67.70
2022-09-03T20:29:14.403Z,68.87
2022-09-03T20:34:35.126Z,69.20
2022-09-03T20:39:45.052Z,69.40
2022-09-03T20:45:19.841Z,69.60
2022-09-03T20:50:53.050Z,69.70
2022-09-03T20:56:00.973Z,70.01
2022-09-03T21:01:07.398Z,70.07
2022-09-03T21:06:30.191Z,70.32
2022-09-03T21:11:58.749Z,70.80
2022-09-03T21:17:30.193Z,70.64
2022-09-03T21:22:40.670Z,71.45
2022-09-03T21:27:54.775Z,71.75
2022-09-03T21:33:03.283Z,71.99
2022-09-03T21:38:12.308Z,72.35
2022-09-03T21:43:50.640Z,72.78
2022-09-03T21:48:57.740Z,72.40
2022-09-03T21:54:21.221Z,73.17
2022-09-03T21:59:36.015Z,73.13
2022-09-03T22:04:37.880Z,73.52
2022-09-03T22:09:50.689Z,73.50
2022-09-03T22:14:55.248Z,74.17
2022-09-03T22:19:57.640Z,74.51
2022-09-03T22:25:10.268Z,75.00
2022-09-03T22:30:21.000Z,75.02
2022-09-03T22:35:38.803Z,74.80
2022-09-03T22:41:32.290Z,75.21
2022-09-03T22:46:49.833Z,75.43
2022-09-03T22:52:00.416Z,75.68
2022-09-03T22:57:04.452Z,75.93
2022-09-03T23:02:26.291Z,76.35
2022-09-03T23:07:53.302Z,75.99
2022-09-03T23:13:09.365Z,76.46
2022-09-03T23:18:20.069Z,76.53
2022-09-03T23:23:29.194Z,76.47
2022-09-03T23:28:36.457Z,76.60
2022-09-03T23:33:39.294Z,76.70
2022-09-03T23:39:05.893Z,76.66
2022-09-03T23:44:32.713Z,76.72
2022-09-03T23:49:46.775Z,77.24
2022-09-03T23:54:48.446Z,77.56
